Time;durP1;ratioP1;P1;durP2;ratioP2;P2;SDS_P1;SDS_P2;PMS_P1;PMS_P2;Temp;Humidity;BMP_temperature;BMP_pressure;BME280_temperature;BME280_humidity;BME280_pressure;Samples;Min_cycle;Max_cycle;Signal;HPM_P1;HPM_P2
2021/04/14 00:01:56;;;;;;;13.25;5.85;;;;;;;4.91;63.57;100994.34;1730500;80;26627;-83
2021/04/14 00:04:22;;;;;;;11.03;6.03;;;;;;;4.89;64.14;100992.33;1703663;81;25794;-83
2021/04/14 00:06:48;;;;;;;13.03;6.17;;;;;;;4.90;64.11;100993.97;1729772;80;25890;-83
2021/04/14 00:09:14;;;;;;;13.37;6.73;;;;;;;4.89;64.26;100998.33;1700496;82;27263;-83
2021/04/14 00:11:40;;;;;;;13.83;6.13;;;;;;;4.90;64.32;100997.86;1698134;82;25372;-83
2021/04/14 00:14:08;;;;;;;12.60;7.00;;;;;;;4.89;64.19;100999.63;1698442;82;25758;-83
2021/04/14 00:16:34;;;;;;;13.50;6.67;;;;;;;4.91;64.24;101004.70;1698584;82;25736;-83
2021/04/14 00:19:01;;;;;;;12.03;6.22;;;;;;;4.91;64.43;101007.30;1683589;82;26458;-83
2021/04/14 00:21:27;;;;;;;12.05;6.53;;;;;;;4.90;64.34;101010.33;1701094;82;25669;-83
2021/04/14 00:23:55;;;;;;;15.73;6.83;;;;;;;4.84;64.44;101007.38;1699361;82;25845;-83
2021/04/14 00:26:21;;;;;;;11.88;6.50;;;;;;;4.80;64.70;101004.64;1698523;82;25874;-83
2021/04/14 00:28:47;;;;;;;10.13;6.30;;;;;;;4.75;64.79;101008.06;1696872;82;25715;-83
2021/04/14 00:31:14;;;;;;;10.82;6.08;;;;;;;4.73;64.98;101008.16;1696696;82;25310;-83
2021/04/14 00:33:42;;;;;;;13.18;6.72;;;;;;;4.72;64.98;101006.52;1702405;82;25869;-83
2021/04/14 00:36:10;;;;;;;9.85;5.70;;;;;;;4.70;65.04;101004.97;1699569;82;25667;-83
2021/04/14 00:38:36;;;;;;;14.07;6.20;;;;;;;4.71;65.00;101002.25;1698831;82;27261;-83
2021/04/14 00:41:07;;;;;;;12.27;6.50;;;;;;;4.73;65.06;101002.98;1676675;82;25837;-83
2021/04/14 00:43:36;;;;;;;10.68;5.65;;;;;;;4.72;65.06;100997.89;1695943;82;25723;-84
2021/04/14 00:46:04;;;;;;;12.23;6.60;;;;;;;4.72;65.08;100992.72;1698289;82;25873;-83
2021/04/14 00:48:30;;;;;;;10.10;5.58;;;;;;;4.69;65.09;100998.94;1696002;82;25836;-83
2021/04/14 00:50:58;;;;;;;11.65;6.60;;;;;;;4.65;65.12;101002.23;1697286;82;26054;-84
2021/04/14 00:53:25;;;;;;;11.25;6.47;;;;;;;4.64;65.33;100996.70;1694906;82;25717;-84
2021/04/14 00:55:51;;;;;;;12.18;6.85;;;;;;;4.68;65.69;100994.71;1698506;82;25367;-84
2021/04/14 00:58:17;;;;;;;12.70;6.87;;;;;;;4.66;65.63;100979.75;1699139;82;25884;-84
2021/04/14 01:00:46;;;;;;;15.73;7.53;;;;;;;4.64;65.72;100976.47;1696196;82;25604;-84
2021/04/14 01:03:22;;;;;;;11.30;6.85;;;;;;;4.63;65.77;100978.68;1699244;82;27140;-84
2021/04/14 01:05:52;;;;;;;16.60;6.97;;;;;;;4.63;65.82;100988.56;1697420;82;25442;-83
2021/04/14 01:08:18;;;;;;;13.25;7.28;;;;;;;4.61;65.79;100987.88;1696853;82;25736;-83
2021/04/14 01:10:44;;;;;;;18.32;9.45;;;;;;;4.59;65.87;100991.03;1698516;82;25883;-83
2021/04/14 01:13:12;;;;;;;11.33;6.73;;;;;;;4.62;65.94;100992.57;1706872;82;25887;-83
2021/04/14 01:15:41;;;;;;;14.75;7.05;;;;;;;4.62;65.98;100989.98;1697466;82;25896;-83
2021/04/14 01:18:14;;;;;;;17.07;7.30;;;;;;;4.65;66.04;100981.52;1699228;82;25919;-83
2021/04/14 01:20:40;;;;;;;12.93;7.33;;;;;;;4.60;65.97;100982.79;1696190;82;26676;-83
2021/04/14 01:23:08;;;;;;;15.10;7.97;;;;;;;4.53;66.14;100978.54;1691588;82;26152;-84
2021/04/14 01:25:38;;;;;;;11.63;7.12;;;;;;;4.48;66.29;100974.16;1674225;83;25891;-83
2021/04/14 01:28:14;;;;;;;11.25;6.42;;;;;;;4.42;66.44;100975.90;1676332;83;26650;-84
2021/04/14 01:30:42;;;;;;;10.15;6.20;;;;;;;4.40;66.60;100979.87;1698316;82;25881;-83
2021/04/14 01:33:10;;;;;;;11.48;6.20;;;;;;;4.41;66.78;100975.52;1749388;79;25705;-83
2021/04/14 01:35:36;;;;;;;14.20;6.45;;;;;;;4.44;66.76;100981.30;1747378;79;25710;-83
2021/04/14 01:38:02;;;;;;;12.20;6.75;;;;;;;4.43;66.75;100982.23;1747645;79;25689;-83
2021/04/14 01:40:29;;;;;;;10.93;6.33;;;;;;;4.44;66.90;100977.41;1749966;79;25662;-83
2021/04/14 01:42:55;;;;;;;12.10;6.03;;;;;;;4.43;67.03;100977.06;1748943;79;25841;-83
2021/04/14 01:45:30;;;;;;;12.80;7.00;;;;;;;4.41;66.98;100971.64;1748456;79;25818;-84
2021/04/14 01:47:56;;;;;;;15.18;6.85;;;;;;;4.40;67.13;100976.47;1747787;79;25794;-83
2021/04/14 01:50:23;;;;;;;12.35;6.65;;;;;;;4.38;67.06;100971.86;1750432;79;25666;-83
2021/04/14 01:52:50;;;;;;;12.43;6.28;;;;;;;4.34;67.16;100969.15;1748619;79;26434;-84
2021/04/14 01:55:17;;;;;;;11.45;5.72;;;;;;;4.33;67.39;100972.18;1748588;79;25823;-83
2021/04/14 01:57:45;;;;;;;11.75;5.75;;;;;;;4.34;67.28;100973.03;1749206;79;25595;-83
2021/04/14 02:00:31;;;;;;;11.95;6.08;;;;;;;4.33;67.36;100970.89;1747552;79;25739;-83
2021/04/14 02:02:59;;;;;;;13.10;6.65;;;;;;;4.34;67.30;100961.39;1749636;79;25769;-83
2021/04/14 02:05:28;;;;;;;11.33;6.30;;;;;;;4.36;67.53;100965.96;1748598;79;26440;-83
2021/04/14 02:07:55;;;;;;;12.98;6.22;;;;;;;4.34;67.41;100969.97;1747884;79;25716;-83
2021/04/14 02:10:23;;;;;;;12.78;5.78;;;;;;;4.36;67.42;100960.31;1748093;79;26558;-84
2021/04/14 02:12:49;;;;;;;16.05;6.53;;;;;;;4.37;67.47;100957.28;1748745;79;25793;-84
2021/04/14 02:15:21;;;;;;;16.65;6.58;;;;;;;4.35;67.41;100960.44;1748750;79;26499;-84
2021/04/14 02:17:47;;;;;;;9.65;5.78;;;;;;;4.32;67.46;100958.89;1748738;79;25975;-84
2021/04/14 02:20:14;;;;;;;10.63;5.00;;;;;;;4.32;67.43;100959.37;1748936;79;25722;-83
2021/04/14 02:22:40;;;;;;;11.40;5.47;;;;;;;4.34;67.47;100962.69;1749879;79;26615;-83
2021/04/14 02:25:10;;;;;;;9.50;5.30;;;;;;;4.32;67.24;100957.60;1747127;79;25871;-83
2021/04/14 02:27:35;;;;;;;10.23;5.40;;;;;;;4.35;67.31;100960.44;1749281;79;25806;-83
2021/04/14 02:30:09;;;;;;;14.77;5.67;;;;;;;4.34;67.15;100956.21;1749318;79;26435;-83
2021/04/14 02:32:35;;;;;;;19.25;6.17;;;;;;;4.29;66.99;100955.71;1748928;79;25894;-84
2021/04/14 02:35:02;;;;;;;12.53;5.70;;;;;;;4.31;67.12;100957.70;1748529;79;25714;-84
2021/04/14 02:37:27;;;;;;;12.28;5.62;;;;;;;4.30;66.91;100958.64;1698505;82;25711;-83
2021/04/14 02:39:54;;;;;;;15.93;5.20;;;;;;;4.27;66.92;100964.86;1749276;79;25780;-84
2021/04/14 02:42:20;;;;;;;9.80;5.00;;;;;;;4.26;66.90;100962.41;1745680;79;26360;-83
2021/04/14 02:44:46;;;;;;;11.50;5.00;;;;;;;4.25;66.91;100956.84;1748927;79;25453;-83
2021/04/14 02:47:12;;;;;;;12.00;5.40;;;;;;;4.25;66.96;100960.25;1747308;79;25723;-83
2021/04/14 02:49:38;;;;;;;13.17;5.37;;;;;;;4.22;66.88;100950.13;1746322;79;25926;-84
2021/04/14 02:52:04;;;;;;;8.13;4.60;;;;;;;4.19;66.71;100956.34;1748560;79;25800;-83
2021/04/14 02:54:30;;;;;;;11.48;4.80;;;;;;;4.18;66.80;100959.88;1700526;82;26538;-83
2021/04/14 02:56:56;;;;;;;9.77;4.83;;;;;;;4.22;66.82;100957.42;1747557;79;25944;-83
2021/04/14 02:59:21;;;;;;;9.40;4.27;;;;;;;4.23;66.76;100955.69;1747342;79;25699;-83
2021/04/14 03:01:47;;;;;;;12.43;5.03;;;;;;;4.27;66.83;100951.10;1747315;79;27143;-83
2021/04/14 03:04:15;;;;;;;12.13;4.43;;;;;;;4.26;66.72;100948.99;1749526;79;25624;-83
2021/04/14 03:06:41;;;;;;;10.78;4.53;;;;;;;4.23;66.83;100955.20;1745008;79;26378;-83
2021/04/14 03:09:06;;;;;;;14.70;5.07;;;;;;;4.19;66.77;100947.29;1748616;79;25763;-84
2021/04/14 03:11:32;;;;;;;13.10;4.77;;;;;;;4.17;66.75;100945.30;1698563;82;25972;-83
2021/04/14 03:13:58;;;;;;;11.67;4.87;;;;;;;4.14;66.78;100948.08;1687299;82;25842;-84
2021/04/14 03:16:25;;;;;;;11.20;5.10;;;;;;;4.08;66.91;100943.35;1683961;83;25785;-83
2021/04/14 03:18:52;;;;;;;14.47;5.45;;;;;;;4.06;67.09;100941.33;1681795;83;25920;-83
2021/04/14 03:21:19;;;;;;;10.70;4.85;;;;;;;4.06;67.09;100944.39;1683128;83;25769;-84
2021/04/14 03:23:45;;;;;;;13.75;5.33;;;;;;;4.06;67.31;100949.09;1683901;83;25698;-83
2021/04/14 03:26:10;;;;;;;12.90;4.47;;;;;;;4.04;67.12;100944.96;1684397;83;25709;-84
2021/04/14 03:28:36;;;;;;;13.93;5.33;;;;;;;4.04;67.37;100952.28;1683108;83;25735;-83
2021/04/14 03:31:02;;;;;;;14.53;4.80;;;;;;;4.03;67.54;100948.49;1683595;83;25771;-84
2021/04/14 03:33:28;;;;;;;10.82;4.58;;;;;;;4.02;67.33;100946.85;1698773;82;25927;-83
2021/04/14 03:35:54;;;;;;;14.27;4.43;;;;;;;4.03;67.45;100946.73;1699259;82;25912;-83
2021/04/14 03:38:20;;;;;;;12.47;5.50;;;;;;;4.00;67.59;100945.66;1698774;82;25801;-83
2021/04/14 03:40:46;;;;;;;9.93;4.70;;;;;;;3.97;67.46;100952.34;1748094;79;25780;-83
2021/04/14 03:43:13;;;;;;;12.75;5.35;;;;;;;3.99;67.52;100944.02;1747809;79;26603;-84
2021/04/14 03:45:45;;;;;;;16.82;5.37;;;;;;;4.03;67.62;100945.91;1748842;79;25690;-84
2021/04/14 03:48:08;;;;;;;12.93;5.78;;;;;;;4.06;67.54;100950.39;1745969;79;25838;-83
2021/04/14 03:50:34;;;;;;;10.45;5.70;;;;;;;4.06;67.54;100940.03;1700145;82;25704;-83
2021/04/14 03:53:23;;;;;;;11.70;4.85;;;;;;;4.08;67.59;100939.95;1748397;79;26424;-83
2021/04/14 03:55:45;;;;;;;13.72;5.00;;;;;;;4.08;67.63;100935.59;1746914;79;26615;-83
2021/04/14 03:58:11;;;;;;;15.43;4.90;;;;;;;4.10;67.61;100939.38;1748316;79;25714;-83
2021/04/14 04:00:37;;;;;;;18.30;5.83;;;;;;;4.07;67.67;100940.41;1747823;79;35166;-83
2021/04/14 04:03:03;;;;;;;14.10;5.20;;;;;;;4.05;67.63;100938.87;1748366;79;26263;-83
2021/04/14 04:05:29;;;;;;;12.43;5.05;;;;;;;3.99;67.72;100941.42;1746957;79;25216;-83
2021/04/14 04:07:55;;;;;;;13.47;4.93;;;;;;;3.96;67.86;100945.05;1750865;79;26699;-83
2021/04/14 04:10:21;;;;;;;9.13;4.70;;;;;;;4.00;67.88;100949.06;1749119;79;25481;-82
2021/04/14 04:12:47;;;;;;;15.78;5.47;;;;;;;3.98;67.81;100952.69;1746394;79;25678;-82
2021/04/14 04:15:13;;;;;;;8.80;5.13;;;;;;;3.96;67.87;100960.57;1699886;82;27220;-82
2021/04/14 04:17:40;;;;;;;13.20;5.03;;;;;;;3.98;67.97;100957.42;1746686;79;25973;-82
2021/04/14 04:20:10;;;;;;;13.68;5.10;;;;;;;4.00;68.02;100952.12;1746605;79;25689;-83
2021/04/14 04:22:38;;;;;;;11.38;4.45;;;;;;;4.02;68.18;100957.20;1749539;79;25764;-83
2021/04/14 04:25:06;;;;;;;16.67;6.28;;;;;;;4.01;68.30;100956.38;1762706;78;25830;-82
2021/04/14 04:27:32;;;;;;;13.40;4.80;;;;;;;4.00;68.13;100961.98;1741014;78;25325;-82
2021/04/14 04:29:58;;;;;;;13.67;4.53;;;;;;;4.00;68.38;100967.16;1769454;78;25693;-82
2021/04/14 04:32:24;;;;;;;11.77;5.23;;;;;;;4.00;68.23;100968.92;1768014;78;26231;-82
2021/04/14 04:34:50;;;;;;;13.97;5.43;;;;;;;4.03;68.34;100967.41;1769480;78;26467;-82
2021/04/14 04:37:16;;;;;;;15.13;4.90;;;;;;;4.04;68.41;100969.09;1770629;78;25637;-82
2021/04/14 04:39:41;;;;;;;14.00;6.23;;;;;;;4.02;68.40;100964.48;1770402;78;25879;-82
2021/04/14 04:42:08;;;;;;;10.33;4.60;;;;;;;3.95;68.94;100966.66;1734673;80;26641;-82
2021/04/14 04:44:34;;;;;;;15.18;5.17;;;;;;;3.86;69.08;100965.20;1766902;78;25679;-82
2021/04/14 04:47:00;;;;;;;12.37;4.43;;;;;;;3.81;69.51;100975.02;1770145;78;26329;-81
2021/04/14 04:49:26;;;;;;;10.33;5.27;;;;;;;3.75;69.56;100974.98;1767873;78;25796;-83
2021/04/14 04:51:51;;;;;;;12.00;5.03;;;;;;;3.72;69.99;100977.78;1766628;78;25356;-81
2021/04/14 04:54:18;;;;;;;16.60;4.73;;;;;;;3.61;70.80;100979.81;1739229;80;25344;-82
2021/04/14 04:56:44;;;;;;;11.10;4.35;;;;;;;3.52;71.74;100980.45;1797075;77;25810;-81
2021/04/14 04:59:10;;;;;;;12.23;4.80;;;;;;;3.45;71.58;100981.31;1768653;78;25770;-82
2021/04/14 05:01:36;;;;;;;15.53;4.43;;;;;;;3.37;71.78;100982.29;1734450;80;27135;-81
2021/04/14 05:04:03;;;;;;;15.83;4.45;;;;;;;3.34;72.77;100986.37;1769018;78;25711;-81
2021/04/14 05:06:29;;;;;;;9.15;4.20;;;;;;;3.27;72.97;100982.53;1767771;78;25316;-82
2021/04/14 05:08:55;;;;;;;16.87;4.30;;;;;;;3.23;73.36;100984.98;1732685;80;25404;-76
2021/04/14 05:11:20;;;;;;;13.17;3.70;;;;;;;3.17;74.33;100990.09;1769197;78;25852;-76
2021/04/14 05:13:49;;;;;;;12.17;3.83;;;;;;;3.11;74.59;100998.25;1768776;78;35517;-76
2021/04/14 05:16:14;;;;;;;12.10;3.50;;;;;;;3.07;74.22;101007.94;1768994;78;25737;-82
2021/04/14 05:18:40;;;;;;;9.00;4.20;;;;;;;3.00;75.29;101006.70;1768342;78;25801;-82
2021/04/14 05:21:07;;;;;;;5.47;2.87;;;;;;;2.91;75.57;101011.62;1732996;80;25745;-83
2021/04/14 05:23:33;;;;;;;10.55;2.72;;;;;;;2.74;76.51;101005.78;1773681;78;25349;-83
2021/04/14 05:26:00;;;;;;;8.00;3.00;;;;;;;2.58;76.74;101002.06;1768160;78;25783;-82
2021/04/14 05:28:27;;;;;;;8.00;3.00;;;;;;;2.51;76.98;101008.55;1770080;78;25735;-81
2021/04/14 05:30:54;;;;;;;7.70;3.15;;;;;;;2.49;77.18;101004.42;1770823;78;25692;-81
2021/04/14 05:33:22;;;;;;;8.75;3.50;;;;;;;2.47;77.01;101000.63;1731285;80;25671;-81
2021/04/14 05:35:48;;;;;;;8.60;3.08;;;;;;;2.48;77.57;101002.73;1733776;80;26572;-82
2021/04/14 05:38:14;;;;;;;8.17;3.50;;;;;;;2.48;77.38;100995.82;1731078;80;31122;-83
2021/04/14 05:40:41;;;;;;;7.75;3.27;;;;;;;2.46;78.25;101002.86;1728797;80;44831;-82
2021/04/14 05:43:19;;;;;;;11.18;4.60;;;;;;;2.47;77.68;100999.81;1771837;78;25671;-83
2021/04/14 05:45:47;;;;;;;7.03;3.10;;;;;;;2.48;78.18;100996.30;1770752;78;25786;-78
2021/04/14 05:48:14;;;;;;;12.37;3.77;;;;;;;2.49;78.33;100994.09;1740015;80;25353;-82
2021/04/14 05:50:40;;;;;;;7.75;3.33;;;;;;;2.46;78.09;100987.84;1780412;78;25669;-82
2021/04/14 05:53:07;;;;;;;6.53;3.57;;;;;;;2.46;79.35;100987.38;1781021;78;25698;-82
2021/04/14 05:55:32;;;;;;;9.23;3.98;;;;;;;2.42;78.91;100995.75;1780211;78;25889;-82
2021/04/14 05:57:58;;;;;;;14.47;4.20;;;;;;;2.39;78.94;100989.97;1777500;78;26042;-82
2021/04/14 06:00:25;;;;;;;9.63;4.20;;;;;;;2.37;78.76;100991.38;1779106;78;25345;-82
2021/04/14 06:02:51;;;;;;;10.30;3.67;;;;;;;2.39;78.85;100991.25;1740617;80;25671;-76
2021/04/14 06:05:20;;;;;;;14.90;4.87;;;;;;;2.40;78.93;100988.59;1777882;78;25360;-77
2021/04/14 06:07:46;;;;;;;14.18;5.83;;;;;;;2.49;78.70;100989.76;1770742;78;25733;-76
2021/04/14 06:10:17;;;;;;;8.73;3.30;;;;;;;2.52;78.72;100984.40;1772321;78;25777;-76
2021/04/14 06:12:43;;;;;;;11.65;3.60;;;;;;;2.57;79.28;100989.28;1771706;78;25746;-77
2021/04/14 06:15:14;;;;;;;10.03;2.75;;;;;;;2.58;79.47;100996.08;1736329;80;25701;-77
2021/04/14 06:17:41;;;;;;;11.97;4.03;;;;;;;2.59;79.08;100985.67;1773137;78;25862;-77
2021/04/14 06:20:10;;;;;;;11.28;3.52;;;;;;;2.56;79.46;100988.89;1771526;78;25535;-78
2021/04/14 06:22:36;;;;;;;10.70;3.50;;;;;;;2.57;79.62;100991.86;1769995;78;26585;-77
2021/04/14 06:25:06;;;;;;;9.73;3.40;;;;;;;2.56;79.61;100995.34;1735570;80;26392;-77
2021/04/14 06:27:41;;;;;;;10.65;3.87;;;;;;;2.50;80.27;100991.88;1769960;78;25368;-77
2021/04/14 06:30:06;;;;;;;10.43;3.42;;;;;;;2.50;79.92;100995.74;1772480;78;25319;-77
2021/04/14 06:32:32;;;;;;;16.07;6.35;;;;;;;2.48;80.24;101001.45;1768548;78;25569;-83
2021/04/14 06:34:57;;;;;;;6.10;2.80;;;;;;;2.44;79.71;100994.38;1775926;78;25604;-83
2021/04/14 06:37:23;;;;;;;7.60;2.83;;;;;;;2.40;80.26;100993.75;1771303;78;26559;-84
2021/04/14 06:40:11;;;;;;;7.60;2.83;;;;;;;2.35;81.07;100990.63;1771926;78;35122;-84
2021/04/14 06:42:44;;;;;;;8.40;2.98;;;;;;;2.27;80.19;100990.28;1770988;78;25269;-80
2021/04/14 06:45:19;;;;;;;9.80;4.05;;;;;;;2.28;80.71;100992.39;1776373;78;25564;-80
2021/04/14 06:47:52;;;;;;;;;;;;;;;2.29;80.71;100991.02;1780524;78;26010;-80
2021/04/14 06:50:35;;;;;;;10.55;4.12;;;;;;;2.29;80.25;100991.02;1775946;78;25383;-81
2021/04/14 06:53:22;;;;;;;13.88;6.28;;;;;;;2.28;80.61;100985.48;1772427;78;25799;-83
2021/04/14 06:55:58;;;;;;;13.50;7.58;;;;;;;2.27;81.10;100985.59;1776264;78;25875;-82
2021/04/14 06:58:32;;;;;;;12.80;6.00;;;;;;;2.26;80.79;100984.73;1768051;78;26002;-78
2021/04/14 07:01:03;;;;;;;12.23;6.60;;;;;;;2.28;80.97;100982.90;1753103;78;25833;-78
2021/04/14 07:03:35;;;;;;;12.82;5.22;;;;;;;2.30;81.21;100982.34;1777964;78;25785;-81
2021/04/14 07:06:03;;;;;;;14.47;6.58;;;;;;;2.33;81.45;100976.99;1765384;78;25755;-80
2021/04/14 07:08:33;;;;;;;11.93;5.92;;;;;;;2.31;81.75;100983.99;1766511;78;25641;-82
2021/04/14 07:11:02;;;;;;;13.50;6.33;;;;;;;2.35;81.54;100986.77;1734164;80;25670;-79
2021/04/14 07:13:32;;;;;;;12.58;5.40;;;;;;;2.39;81.82;100984.34;1771246;78;25717;-78
2021/04/14 07:16:43;;;;;;;10.58;4.15;;;;;;;2.42;81.74;100986.72;1770347;78;25312;-83
2021/04/14 07:19:27;;;;;;;16.65;4.35;;;;;;;2.47;82.50;100985.62;1771657;78;25333;-81
2021/04/14 07:22:28;;;;;;;9.98;4.92;;;;;;;2.46;82.30;100986.55;1772451;78;25403;-82
2021/04/14 07:24:59;;;;;;;9.65;3.75;;;;;;;2.46;82.91;100980.92;1772488;78;26430;-78
2021/04/14 07:27:58;;;;;;;7.72;4.17;;;;;;;2.42;82.72;100982.85;1747266;78;27761;-77
2021/04/14 07:30:30;;;;;;;9.70;3.42;;;;;;;2.42;82.93;100971.71;1778067;78;26086;-79
2021/04/14 07:33:16;;;;;;;9.10;4.15;;;;;;;2.44;82.91;100981.01;1773076;78;25767;-79
2021/04/14 07:36:06;;;;;;;8.55;3.60;;;;;;;2.44;83.20;100983.59;1730892;81;25845;-83
2021/04/14 07:38:58;;;;;;;10.40;2.80;;;;;;;2.44;82.75;100982.30;1728410;81;25484;-80
2021/04/14 07:41:51;;;;;;;12.68;5.58;;;;;;;2.38;83.25;100983.98;1730646;81;25782;-81
2021/04/14 07:44:51;;;;;;;10.48;4.28;;;;;;;2.35;82.94;100985.47;1732395;81;25348;-80
2021/04/14 07:47:18;;;;;;;;;;;;;;;2.38;83.45;100979.30;1736494;81;25866;-84
2021/04/14 07:49:45;;;;;;;7.55;2.83;;;;;;;2.38;82.71;100975.42;1734231;81;25783;-83
2021/04/14 07:52:16;;;;;;;7.35;3.08;;;;;;;2.35;83.69;100988.05;1733278;81;25443;-80
2021/04/14 07:54:47;;;;;;;9.60;4.25;;;;;;;2.29;83.20;100973.41;1733438;81;25791;-79
2021/04/14 07:57:17;;;;;;;6.42;3.08;;;;;;;2.28;83.15;100972.58;1735671;81;25698;-76
2021/04/14 07:59:44;;;;;;;8.78;3.90;;;;;;;2.30;83.90;100975.08;1731350;81;25921;-78
2021/04/14 08:02:13;;;;;;;10.00;3.58;;;;;;;2.30;83.43;100973.32;1735434;81;25399;-81
2021/04/14 08:04:45;;;;;;;8.78;3.55;;;;;;;2.29;83.94;100963.94;1732722;81;25685;-77
2021/04/14 08:07:16;;;;;;;10.63;3.15;;;;;;;2.28;84.21;100968.72;1735647;81;25880;-83
2021/04/14 08:10:02;;;;;;;9.63;4.28;;;;;;;2.29;84.63;100966.52;1748229;79;25412;-80
2021/04/14 08:12:32;;;;;;;6.90;3.15;;;;;;;2.31;84.09;100967.70;1769370;78;25767;-74
2021/04/14 08:15:17;;;;;;;9.55;4.33;;;;;;;2.34;85.34;100967.03;1774009;78;25386;-78
2021/04/14 08:17:46;;;;;;;11.88;3.75;;;;;;;2.34;84.67;100972.66;1678983;83;25614;-81
2021/04/14 08:20:31;;;;;;;6.72;2.90;;;;;;;2.36;84.43;100962.61;1675329;83;25689;-81
2021/04/14 08:23:13;;;;;;;8.15;3.30;;;;;;;2.34;84.61;100972.19;1672495;83;25875;-81
2021/04/14 08:25:53;;;;;;;8.50;3.10;;;;;;;2.32;84.62;100971.92;1673923;83;25827;-75
2021/04/14 08:28:55;;;;;;;9.55;3.75;;;;;;;2.33;85.23;100964.56;1673183;83;25802;-76
2021/04/14 08:31:44;;;;;;;5.97;3.10;;;;;;;2.34;84.82;100968.79;1671883;83;26180;-80
2021/04/14 08:34:20;;;;;;;9.10;3.95;;;;;;;2.34;85.33;100968.32;1671611;83;25825;-82
2021/04/14 08:36:51;;;;;;;10.48;4.40;;;;;;;2.32;84.91;100961.60;1640388;86;25995;-85
2021/04/14 08:39:22;;;;;;;8.68;3.83;;;;;;;2.21;85.21;100939.92;1640697;85;25793;-82
2021/04/14 08:41:49;;;;;;;10.25;4.10;;;;;;;2.38;84.99;100961.23;1638323;85;25363;-81
2021/04/14 08:44:20;;;;;;;6.60;3.90;;;;;;;2.40;84.80;100960.22;1636407;86;25839;-83
2021/04/14 08:46:46;;;;;;;9.13;3.20;;;;;;;2.43;84.91;100955.33;1640022;85;27199;-86
2021/04/14 08:49:24;;;;;;;7.00;3.40;;;;;;;2.36;85.00;100962.61;1609097;88;25936;-78
2021/04/14 08:51:53;;;;;;;10.68;4.72;;;;;;;2.32;85.47;100952.14;1638545;86;25987;-83
2021/04/14 08:54:27;;;;;;;10.20;4.72;;;;;;;2.32;85.54;100964.18;1675502;81;25913;-86
2021/04/14 08:56:56;;;;;;;7.83;4.15;;;;;;;2.29;86.48;100952.34;1717816;81;25762;-83
2021/04/14 08:59:24;;;;;;;10.50;4.08;;;;;;;2.29;86.48;100952.34;1678014;83;25749;-82
2021/04/14 09:01:52;;;;;;;11.85;5.10;;;;;;;2.25;85.29;100957.30;1661494;83;25351;-83
2021/04/14 09:04:20;;;;;;;10.00;4.55;;;;;;;2.22;85.07;100957.50;1685636;83;26576;-90
2021/04/14 09:06:49;;;;;;;9.20;4.70;;;;;;;2.21;85.02;100960.55;1710072;81;25419;-84
2021/04/14 09:09:20;;;;;;;8.85;4.62;;;;;;;2.10;84.88;100962.98;1711789;81;25336;-85
2021/04/14 09:11:59;;;;;;;7.62;4.75;;;;;;;2.02;84.80;100971.64;1712362;81;25815;-80
2021/04/14 09:14:29;;;;;;;8.28;5.05;;;;;;;1.98;85.06;100968.41;1748321;78;25682;-80
2021/04/14 09:17:04;;;;;;;9.15;5.40;;;;;;;1.97;85.06;100963.36;1771257;78;25685;-77
2021/04/14 09:19:50;;;;;;;10.10;5.03;;;;;;;1.98;85.49;100954.23;1767965;78;26506;-83
2021/04/14 09:22:27;;;;;;;8.25;4.55;;;;;;;2.07;85.33;100959.73;1768376;78;25662;-78
2021/04/14 09:25:04;;;;;;;7.37;4.15;;;;;;;2.15;85.46;100944.62;1771256;78;25778;-77
2021/04/14 09:27:44;;;;;;;8.30;4.83;;;;;;;2.23;85.56;100951.41;1771003;78;25754;-77
2021/04/14 09:30:40;;;;;;;7.22;4.33;;;;;;;2.28;85.28;100946.80;1767296;78;25806;-82
2021/04/14 09:33:15;;;;;;;9.83;4.37;;;;;;;2.37;85.57;100937.20;1692727;82;26007;-84
2021/04/14 09:35:55;;;;;;;6.95;4.03;;;;;;;2.41;85.70;100937.83;1694739;83;25787;-76
2021/04/14 09:38:38;;;;;;;12.03;6.83;;;;;;;2.43;85.77;100935.98;1693167;83;26582;-82
2021/04/14 09:41:28;;;;;;;11.83;5.45;;;;;;;2.45;85.56;100943.13;1690848;83;25807;-83
2021/04/14 09:43:59;;;;;;;10.03;6.30;;;;;;;2.40;85.19;100942.16;1694865;82;25712;-83
2021/04/14 09:46:33;;;;;;;10.00;4.83;;;;;;;2.39;85.85;100940.48;1697823;83;25599;-83
2021/04/14 09:49:17;;;;;;;11.53;4.90;;;;;;;2.37;85.70;100940.22;1698463;83;25753;-78
2021/04/14 09:52:00;;;;;;;8.40;4.70;;;;;;;2.40;85.99;100937.00;1698779;83;25640;-87
2021/04/14 09:54:31;;;;;;;16.07;7.00;;;;;;;2.41;85.85;100932.20;1696629;83;25371;-88
2021/04/14 09:57:00;;;;;;;13.05;6.37;;;;;;;2.42;86.34;100931.73;1696720;83;25588;-86
2021/04/14 09:59:36;;;;;;;10.25;6.70;;;;;;;2.43;85.80;100933.41;1695901;83;25813;-80
2021/04/14 10:02:13;;;;;;;10.05;4.83;;;;;;;2.48;85.75;100930.03;1693796;83;25660;-79
2021/04/14 10:04:40;;;;;;;8.60;4.30;;;;;;;2.53;86.03;100930.57;1693877;83;25949;-79
2021/04/14 10:07:29;;;;;;;10.08;5.15;;;;;;;2.57;85.98;100929.93;1696304;83;25760;-85
2021/04/14 10:10:12;;;;;;;8.70;4.95;;;;;;;2.57;85.58;100927.35;1691187;82;25356;-89
2021/04/14 10:12:38;;;;;;;18.62;6.80;;;;;;;2.57;86.02;100926.88;1673429;83;25548;-92
2021/04/14 10:15:08;;;;;;;12.15;5.58;;;;;;;2.50;85.83;100926.91;1694365;82;26207;-83
2021/04/14 10:17:36;;;;;;;12.13;6.08;;;;;;;2.52;85.78;100929.39;1695821;82;25841;-83
2021/04/14 10:20:24;;;;;;;10.63;4.53;;;;;;;2.52;86.04;100935.37;1669762;83;25839;-86
2021/04/14 10:22:50;;;;;;;8.13;4.10;;;;;;;2.51;86.04;100933.73;1697959;83;25323;-87
2021/04/14 10:25:28;;;;;;;7.30;4.17;;;;;;;2.48;85.91;100924.87;1699929;82;25296;-91
2021/04/14 10:28:17;;;;;;;7.50;4.45;;;;;;;2.47;86.11;100923.23;1698192;82;25868;-90
2021/04/14 10:31:04;;;;;;;7.20;4.37;;;;;;;2.49;86.27;100929.59;1696735;82;25839;-81
2021/04/14 10:33:31;;;;;;;9.75;4.87;;;;;;;2.48;86.23;100933.08;1696618;82;25359;-82
2021/04/14 10:36:11;;;;;;;7.53;4.83;;;;;;;2.49;86.67;100932.17;1696225;82;25626;-81
2021/04/14 10:38:37;;;;;;;9.70;4.75;;;;;;;2.50;86.47;100926.91;1701198;82;26384;-85
2021/04/14 10:41:32;;;;;;;6.72;4.65;;;;;;;2.53;86.51;100927.17;1696367;82;26205;-88
2021/04/14 10:43:58;;;;;;;8.58;5.00;;;;;;;2.53;86.62;100924.13;1698007;82;25705;-80
2021/04/14 10:46:29;;;;;;;7.15;4.60;;;;;;;2.56;86.37;100917.47;1694355;82;25565;-85
2021/04/14 10:49:03;;;;;;;9.95;4.55;;;;;;;2.65;86.39;100919.47;1695776;82;25340;-93
2021/04/14 10:51:43;;;;;;;7.85;5.47;;;;;;;2.69;86.69;100921.37;1694488;82;25763;-87
2021/04/14 10:54:12;;;;;;;11.68;5.92;;;;;;;2.73;86.34;100912.95;1695415;82;25787;-80
2021/04/14 10:56:39;;;;;;;9.55;5.80;;;;;;;2.78;86.20;100908.33;1694978;82;26006;-81
2021/04/14 10:59:13;;;;;;;7.40;4.40;;;;;;;2.86;86.17;100904.77;1697945;82;25828;-83
2021/04/14 11:01:44;;;;;;;9.45;4.50;;;;;;;2.88;86.18;100906.33;1699325;81;25692;-78
2021/04/14 11:04:34;;;;;;;6.60;4.37;;;;;;;2.87;85.56;100904.69;1693473;82;25795;-78
2021/04/14 11:07:08;;;;;;;8.90;4.60;;;;;;;2.84;85.73;100907.47;1661187;82;25362;-82
2021/04/14 11:09:38;;;;;;;6.85;4.50;;;;;;;2.81;85.78;100903.81;1701148;82;25848;-89
2021/04/14 11:12:09;;;;;;;8.70;3.98;;;;;;;2.81;85.45;100907.68;1697278;83;25314;-83
2021/04/14 11:14:42;;;;;;;7.08;4.55;;;;;;;2.77;85.60;100910.08;1696196;82;25819;-80
2021/04/14 11:17:12;;;;;;;9.40;5.00;;;;;;;2.72;85.52;100906.97;1700191;82;25837;-88
2021/04/14 11:19:57;;;;;;;11.30;5.37;;;;;;;2.71;85.73;100915.66;1695813;82;25362;-88
2021/04/14 11:22:24;;;;;;;6.87;3.77;;;;;;;2.74;86.20;100914.16;1679818;82;25841;-78
2021/04/14 11:24:54;;;;;;;9.55;5.17;;;;;;;2.65;86.21;100916.89;1696525;82;25656;-82
2021/04/14 11:27:24;;;;;;;;;;;;;;;2.58;85.85;100919.96;1698157;82;25397;-85
2021/04/14 11:29:52;;;;;;;7.45;4.58;;;;;;;2.58;86.09;100910.93;1694236;82;25677;-80
2021/04/14 11:32:25;;;;;;;6.42;4.28;;;;;;;2.58;86.10;100912.22;1696892;82;25511;-84
2021/04/14 11:35:08;;;;;;;6.45;4.17;;;;;;;2.63;86.47;100910.17;1694217;82;25700;-81
2021/04/14 11:37:42;;;;;;;5.92;3.95;;;;;;;2.67;86.49;100915.48;1686693;82;25426;-80
2021/04/14 11:40:20;;;;;;;6.03;4.05;;;;;;;2.74;86.32;100906.89;1695860;82;25333;-85
2021/04/14 11:43:05;;;;;;;5.90;3.98;;;;;;;2.77;87.06;100911.37;1694552;82;25385;-85
2021/04/14 11:45:39;;;;;;;8.23;3.92;;;;;;;2.80;86.50;100902.61;1700150;81;25327;-86
2021/04/14 11:48:13;;;;;;;5.10;3.70;;;;;;;2.85;86.75;100901.37;1701236;82;26584;-85